sensor_id;sensor_type;location;lat;lon;timestamp;P1;durP1;ratioP1;P2;durP2;ratioP2
40867;SDS011;26586;50.708;22.412;2022-12-18T00:01:25;31.65;;;16.67;;
40867;SDS011;26586;50.708;22.412;2022-12-18T00:04:00;32.05;;;17.27;;
40867;SDS011;26586;50.708;22.412;2022-12-18T00:06:31;35.13;;;17.60;;
40867;SDS011;26586;50.708;22.412;2022-12-18T00:08:59;31.10;;;16.65;;
40867;SDS011;26586;50.708;22.412;2022-12-18T00:11:28;35.70;;;19.17;;
40867;SDS011;26586;50.708;22.412;2022-12-18T00:13:57;32.55;;;17.30;;
40867;SDS011;26586;50.708;22.412;2022-12-18T00:16:24;38.35;;;19.08;;
40867;SDS011;26586;50.708;22.412;2022-12-18T00:18:52;34.45;;;18.75;;
40867;SDS011;26586;50.708;22.412;2022-12-18T00:21:23;33.17;;;17.65;;
40867;SDS011;26586;50.708;22.412;2022-12-18T00:23:50;34.07;;;18.27;;
40867;SDS011;26586;50.708;22.412;2022-12-18T00:26:18;30.92;;;18.63;;
40867;SDS011;26586;50.708;22.412;2022-12-18T00:28:47;36.05;;;17.27;;
40867;SDS011;26586;50.708;22.412;2022-12-18T00:31:14;35.58;;;18.98;;
40867;SDS011;26586;50.708;22.412;2022-12-18T00:33:42;35.42;;;18.73;;
40867;SDS011;26586;50.708;22.412;2022-12-18T00:36:10;38.60;;;17.57;;
40867;SDS011;26586;50.708;22.412;2022-12-18T00:38:43;32.97;;;17.98;;
40867;SDS011;26586;50.708;22.412;2022-12-18T00:41:10;31.42;;;16.98;;
40867;SDS011;26586;50.708;22.412;2022-12-18T00:43:38;29.15;;;15.88;;
40867;SDS011;26586;50.708;22.412;2022-12-18T00:46:05;24.52;;;13.30;;
40867;SDS011;26586;50.708;22.412;2022-12-18T00:48:32;27.73;;;15.38;;
40867;SDS011;26586;50.708;22.412;2022-12-18T00:50:58;26.80;;;13.73;;
40867;SDS011;26586;50.708;22.412;2022-12-18T00:53:25;22.38;;;13.00;;
40867;SDS011;26586;50.708;22.412;2022-12-18T00:55:51;27.25;;;12.73;;
40867;SDS011;26586;50.708;22.412;2022-12-18T00:58:17;28.27;;;13.65;;
40867;SDS011;26586;50.708;22.412;2022-12-18T01:00:44;25.15;;;13.65;;
40867;SDS011;26586;50.708;22.412;2022-12-18T01:03:12;27.83;;;13.27;;
40867;SDS011;26586;50.708;22.412;2022-12-18T01:05:39;21.98;;;11.25;;
40867;SDS011;26586;50.708;22.412;2022-12-18T01:08:07;28.20;;;13.48;;
40867;SDS011;26586;50.708;22.412;2022-12-18T01:10:33;26.08;;;12.82;;
40867;SDS011;26586;50.708;22.412;2022-12-18T01:12:59;22.57;;;11.83;;
40867;SDS011;26586;50.708;22.412;2022-12-18T01:15:25;24.98;;;12.48;;
40867;SDS011;26586;50.708;22.412;2022-12-18T01:17:52;22.27;;;11.52;;
40867;SDS011;26586;50.708;22.412;2022-12-18T01:20:19;26.27;;;12.90;;
40867;SDS011;26586;50.708;22.412;2022-12-18T01:22:45;21.95;;;12.93;;
40867;SDS011;26586;50.708;22.412;2022-12-18T01:25:11;24.77;;;12.30;;
40867;SDS011;26586;50.708;22.412;2022-12-18T01:27:37;23.33;;;13.32;;
40867;SDS011;26586;50.708;22.412;2022-12-18T01:30:04;24.70;;;13.30;;
40867;SDS011;26586;50.708;22.412;2022-12-18T01:32:30;23.85;;;12.82;;
40867;SDS011;26586;50.708;22.412;2022-12-18T01:34:57;20.88;;;11.43;;
40867;SDS011;26586;50.708;22.412;2022-12-18T01:37:23;22.50;;;12.50;;
40867;SDS011;26586;50.708;22.412;2022-12-18T01:39:50;24.13;;;12.20;;
40867;SDS011;26586;50.708;22.412;2022-12-18T01:42:19;24.75;;;12.20;;
40867;SDS011;26586;50.708;22.412;2022-12-18T01:47:50;22.52;;;11.38;;
40867;SDS011;26586;50.708;22.412;2022-12-18T01:52:48;23.10;;;12.63;;
40867;SDS011;26586;50.708;22.412;2022-12-18T01:55:22;20.52;;;10.55;;
40867;SDS011;26586;50.708;22.412;2022-12-18T01:57:55;21.90;;;12.07;;
40867;SDS011;26586;50.708;22.412;2022-12-18T02:00:25;23.83;;;11.95;;
40867;SDS011;26586;50.708;22.412;2022-12-18T02:02:51;21.88;;;11.43;;
40867;SDS011;26586;50.708;22.412;2022-12-18T02:05:20;20.60;;;12.18;;
40867;SDS011;26586;50.708;22.412;2022-12-18T02:08:00;21.63;;;12.52;;
40867;SDS011;26586;50.708;22.412;2022-12-18T02:10:34;24.52;;;13.43;;
40867;SDS011;26586;50.708;22.412;2022-12-18T02:18:41;22.75;;;12.60;;
40867;SDS011;26586;50.708;22.412;2022-12-18T02:24:13;24.58;;;12.23;;
40867;SDS011;26586;50.708;22.412;2022-12-18T02:26:48;21.95;;;10.93;;
40867;SDS011;26586;50.708;22.412;2022-12-18T02:32:04;19.88;;;11.00;;
40867;SDS011;26586;50.708;22.412;2022-12-18T02:34:36;21.13;;;11.38;;
40867;SDS011;26586;50.708;22.412;2022-12-18T02:37:06;20.25;;;11.15;;
40867;SDS011;26586;50.708;22.412;2022-12-18T02:39:38;25.67;;;12.77;;
40867;SDS011;26586;50.708;22.412;2022-12-18T02:42:07;20.13;;;11.57;;
40867;SDS011;26586;50.708;22.412;2022-12-18T02:44:34;21.63;;;11.20;;
40867;SDS011;26586;50.708;22.412;2022-12-18T02:47:08;20.58;;;10.90;;
40867;SDS011;26586;50.708;22.412;2022-12-18T02:52:39;19.35;;;10.27;;
40867;SDS011;26586;50.708;22.412;2022-12-18T03:00:42;23.67;;;10.50;;
40867;SDS011;26586;50.708;22.412;2022-12-18T03:03:24;17.55;;;9.25;;
40867;SDS011;26586;50.708;22.412;2022-12-18T03:06:06;21.25;;;10.75;;
40867;SDS011;26586;50.708;22.412;2022-12-18T03:08:42;23.05;;;10.93;;
40867;SDS011;26586;50.708;22.412;2022-12-18T03:11:12;19.88;;;11.93;;
40867;SDS011;26586;50.708;22.412;2022-12-18T03:13:43;16.90;;;9.60;;
40867;SDS011;26586;50.708;22.412;2022-12-18T03:16:17;18.50;;;9.27;;
40867;SDS011;26586;50.708;22.412;2022-12-18T03:18:49;17.98;;;9.40;;
40867;SDS011;26586;50.708;22.412;2022-12-18T03:21:23;19.35;;;10.38;;
40867;SDS011;26586;50.708;22.412;2022-12-18T03:23:58;16.88;;;8.93;;
40867;SDS011;26586;50.708;22.412;2022-12-18T03:26:26;17.63;;;9.15;;
40867;SDS011;26586;50.708;22.412;2022-12-18T03:28:56;16.50;;;8.15;;
40867;SDS011;26586;50.708;22.412;2022-12-18T03:31:28;15.23;;;8.15;;
40867;SDS011;26586;50.708;22.412;2022-12-18T03:34:00;20.10;;;9.27;;
40867;SDS011;26586;50.708;22.412;2022-12-18T03:36:30;17.95;;;9.48;;
40867;SDS011;26586;50.708;22.412;2022-12-18T03:38:57;19.58;;;9.40;;
40867;SDS011;26586;50.708;22.412;2022-12-18T03:42:06;15.93;;;7.80;;
40867;SDS011;26586;50.708;22.412;2022-12-18T03:47:41;16.27;;;8.13;;
40867;SDS011;26586;50.708;22.412;2022-12-18T03:55:24;14.85;;;8.07;;
40867;SDS011;26586;50.708;22.412;2022-12-18T03:57:54;15.10;;;8.60;;
40867;SDS011;26586;50.708;22.412;2022-12-18T04:00:21;15.05;;;9.15;;
40867;SDS011;26586;50.708;22.412;2022-12-18T04:02:51;17.77;;;10.00;;
40867;SDS011;26586;50.708;22.412;2022-12-18T04:05:20;17.13;;;9.00;;
40867;SDS011;26586;50.708;22.412;2022-12-18T04:07:48;12.82;;;7.35;;
40867;SDS011;26586;50.708;22.412;2022-12-18T04:10:15;15.40;;;7.80;;
40867;SDS011;26586;50.708;22.412;2022-12-18T04:12:42;16.17;;;7.53;;
40867;SDS011;26586;50.708;22.412;2022-12-18T04:15:09;15.20;;;7.80;;
40867;SDS011;26586;50.708;22.412;2022-12-18T04:17:36;18.00;;;8.63;;
40867;SDS011;26586;50.708;22.412;2022-12-18T04:20:04;12.10;;;7.60;;
40867;SDS011;26586;50.708;22.412;2022-12-18T04:22:31;14.15;;;8.60;;
40867;SDS011;26586;50.708;22.412;2022-12-18T04:24:57;18.33;;;8.15;;
40867;SDS011;26586;50.708;22.412;2022-12-18T04:27:23;12.95;;;7.70;;
40867;SDS011;26586;50.708;22.412;2022-12-18T04:29:50;15.55;;;8.40;;
40867;SDS011;26586;50.708;22.412;2022-12-18T04:32:16;15.52;;;7.78;;
40867;SDS011;26586;50.708;22.412;2022-12-18T04:34:42;14.20;;;8.57;;
40867;SDS011;26586;50.708;22.412;2022-12-18T04:37:08;18.27;;;9.40;;
40867;SDS011;26586;50.708;22.412;2022-12-18T04:39:34;18.60;;;8.10;;
40867;SDS011;26586;50.708;22.412;2022-12-18T04:42:01;15.55;;;8.25;;
40867;SDS011;26586;50.708;22.412;2022-12-18T04:44:27;13.13;;;7.90;;
40867;SDS011;26586;50.708;22.412;2022-12-18T04:46:53;11.90;;;7.80;;
40867;SDS011;26586;50.708;22.412;2022-12-18T04:49:20;15.93;;;7.97;;
40867;SDS011;26586;50.708;22.412;2022-12-18T04:51:46;14.07;;;7.57;;
40867;SDS011;26586;50.708;22.412;2022-12-18T04:54:12;14.47;;;7.60;;
40867;SDS011;26586;50.708;22.412;2022-12-18T04:56:38;12.80;;;7.53;;
40867;SDS011;26586;50.708;22.412;2022-12-18T04:59:05;15.00;;;7.93;;
40867;SDS011;26586;50.708;22.412;2022-12-18T05:01:31;14.20;;;8.38;;
40867;SDS011;26586;50.708;22.412;2022-12-18T05:03:57;11.48;;;7.53;;
40867;SDS011;26586;50.708;22.412;2022-12-18T05:06:23;11.20;;;7.88;;
40867;SDS011;26586;50.708;22.412;2022-12-18T05:08:50;13.52;;;8.35;;
40867;SDS011;26586;50.708;22.412;2022-12-18T05:11:16;14.38;;;7.53;;
40867;SDS011;26586;50.708;22.412;2022-12-18T05:13:43;15.20;;;8.05;;
40867;SDS011;26586;50.708;22.412;2022-12-18T05:16:10;17.13;;;8.40;;
40867;SDS011;26586;50.708;22.412;2022-12-18T05:18:36;13.07;;;7.22;;
40867;SDS011;26586;50.708;22.412;2022-12-18T05:21:03;13.20;;;8.07;;
40867;SDS011;26586;50.708;22.412;2022-12-18T05:23:30;14.20;;;7.75;;
40867;SDS011;26586;50.708;22.412;2022-12-18T05:25:57;11.57;;;7.00;;
40867;SDS011;26586;50.708;22.412;2022-12-18T05:28:26;12.02;;;7.40;;
40867;SDS011;26586;50.708;22.412;2022-12-18T05:30:55;13.07;;;8.00;;
40867;SDS011;26586;50.708;22.412;2022-12-18T05:33:23;13.95;;;8.00;;
40867;SDS011;26586;50.708;22.412;2022-12-18T05:35:51;13.10;;;6.72;;
40867;SDS011;26586;50.708;22.412;2022-12-18T05:38:22;10.27;;;6.35;;
40867;SDS011;26586;50.708;22.412;2022-12-18T05:40:50;13.52;;;7.70;;
40867;SDS011;26586;50.708;22.412;2022-12-18T05:43:18;11.75;;;6.50;;
40867;SDS011;26586;50.708;22.412;2022-12-18T05:45:45;13.15;;;7.97;;
40867;SDS011;26586;50.708;22.412;2022-12-18T05:48:11;13.98;;;8.07;;
40867;SDS011;26586;50.708;22.412;2022-12-18T05:50:38;12.20;;;7.27;;
40867;SDS011;26586;50.708;22.412;2022-12-18T05:53:06;14.27;;;6.38;;
40867;SDS011;26586;50.708;22.412;2022-12-18T05:55:33;13.65;;;7.30;;
40867;SDS011;26586;50.708;22.412;2022-12-18T05:58:01;12.73;;;7.32;;
40867;SDS011;26586;50.708;22.412;2022-12-18T06:00:28;12.20;;;6.68;;
40867;SDS011;26586;50.708;22.412;2022-12-18T06:02:55;15.73;;;7.82;;
40867;SDS011;26586;50.708;22.412;2022-12-18T06:05:22;11.35;;;7.63;;
40867;SDS011;26586;50.708;22.412;2022-12-18T06:07:48;14.32;;;8.50;;
40867;SDS011;26586;50.708;22.412;2022-12-18T06:10:14;13.68;;;8.43;;
40867;SDS011;26586;50.708;22.412;2022-12-18T06:12:40;13.32;;;8.10;;
40867;SDS011;26586;50.708;22.412;2022-12-18T06:15:07;12.55;;;7.50;;
40867;SDS011;26586;50.708;22.412;2022-12-18T06:17:34;11.80;;;7.15;;
40867;SDS011;26586;50.708;22.412;2022-12-18T06:20:00;12.65;;;7.45;;
40867;SDS011;26586;50.708;22.412;2022-12-18T06:22:27;12.43;;;7.68;;
40867;SDS011;26586;50.708;22.412;2022-12-18T06:24:53;11.93;;;7.65;;
40867;SDS011;26586;50.708;22.412;2022-12-18T06:27:19;14.37;;;7.50;;
40867;SDS011;26586;50.708;22.412;2022-12-18T06:29:45;15.13;;;8.02;;
40867;SDS011;26586;50.708;22.412;2022-12-18T06:32:12;13.20;;;7.03;;
40867;SDS011;26586;50.708;22.412;2022-12-18T06:34:38;13.75;;;7.85;;
40867;SDS011;26586;50.708;22.412;2022-12-18T06:37:04;13.93;;;7.33;;
40867;SDS011;26586;50.708;22.412;2022-12-18T06:39:30;11.93;;;7.22;;
40867;SDS011;26586;50.708;22.412;2022-12-18T06:41:57;12.40;;;7.23;;
40867;SDS011;26586;50.708;22.412;2022-12-18T06:44:23;13.23;;;7.15;;
40867;SDS011;26586;50.708;22.412;2022-12-18T06:46:49;12.63;;;7.20;;
40867;SDS011;26586;50.708;22.412;2022-12-18T06:49:15;14.48;;;8.32;;
40867;SDS011;26586;50.708;22.412;2022-12-18T06:51:42;17.53;;;8.97;;
40867;SDS011;26586;50.708;22.412;2022-12-18T06:54:08;16.35;;;8.57;;
40867;SDS011;26586;50.708;22.412;2022-12-18T06:56:34;15.57;;;10.10;;
40867;SDS011;26586;50.708;22.412;2022-12-18T06:59:01;19.83;;;11.52;;
40867;SDS011;26586;50.708;22.412;2022-12-18T07:01:27;16.25;;;9.80;;
40867;SDS011;26586;50.708;22.412;2022-12-18T07:03:54;17.92;;;9.05;;
40867;SDS011;26586;50.708;22.412;2022-12-18T07:06:22;14.18;;;7.13;;
40867;SDS011;26586;50.708;22.412;2022-12-18T07:08:50;14.60;;;8.52;;
40867;SDS011;26586;50.708;22.412;2022-12-18T07:11:17;14.82;;;8.75;;
40867;SDS011;26586;50.708;22.412;2022-12-18T07:13:44;15.32;;;8.13;;
40867;SDS011;26586;50.708;22.412;2022-12-18T07:16:15;14.50;;;8.18;;
40867;SDS011;26586;50.708;22.412;2022-12-18T07:18:43;14.05;;;8.65;;
40867;SDS011;26586;50.708;22.412;2022-12-18T07:21:11;15.85;;;9.38;;
40867;SDS011;26586;50.708;22.412;2022-12-18T07:23:39;40.45;;;28.30;;
40867;SDS011;26586;50.708;22.412;2022-12-18T07:26:06;39.90;;;26.13;;
40867;SDS011;26586;50.708;22.412;2022-12-18T07:28:35;23.10;;;13.15;;
40867;SDS011;26586;50.708;22.412;2022-12-18T07:31:12;22.10;;;11.93;;
40867;SDS011;26586;50.708;22.412;2022-12-18T07:33:40;17.73;;;8.98;;
40867;SDS011;26586;50.708;22.412;2022-12-18T07:36:08;14.85;;;8.68;;
40867;SDS011;26586;50.708;22.412;2022-12-18T07:41:11;18.30;;;9.45;;
40867;SDS011;26586;50.708;22.412;2022-12-18T07:43:39;13.68;;;8.40;;
40867;SDS011;26586;50.708;22.412;2022-12-18T07:46:07;18.85;;;10.38;;
40867;SDS011;26586;50.708;22.412;2022-12-18T07:48:34;15.75;;;9.63;;
40867;SDS011;26586;50.708;22.412;2022-12-18T07:51:01;17.23;;;9.43;;
40867;SDS011;26586;50.708;22.412;2022-12-18T07:53:30;18.20;;;10.02;;
40867;SDS011;26586;50.708;22.412;2022-12-18T07:55:58;18.65;;;9.15;;
40867;SDS011;26586;50.708;22.412;2022-12-18T07:58:26;13.38;;;8.50;;
40867;SDS011;26586;50.708;22.412;2022-12-18T08:00:52;14.70;;;8.10;;
40867;SDS011;26586;50.708;22.412;2022-12-18T08:03:18;18.02;;;9.25;;
40867;SDS011;26586;50.708;22.412;2022-12-18T08:05:45;15.95;;;8.88;;
40867;SDS011;26586;50.708;22.412;2022-12-18T08:08:11;15.30;;;9.43;;
40867;SDS011;26586;50.708;22.412;2022-12-18T08:10:38;13.30;;;7.03;;
40867;SDS011;26586;50.708;22.412;2022-12-18T08:13:04;15.55;;;7.70;;
40867;SDS011;26586;50.708;22.412;2022-12-18T08:15:31;13.88;;;7.95;;
40867;SDS011;26586;50.708;22.412;2022-12-18T08:17:57;17.75;;;9.43;;
40867;SDS011;26586;50.708;22.412;2022-12-18T08:20:23;23.60;;;11.45;;
40867;SDS011;26586;50.708;22.412;2022-12-18T08:22:49;29.83;;;16.63;;
40867;SDS011;26586;50.708;22.412;2022-12-18T08:25:15;19.73;;;12.07;;
40867;SDS011;26586;50.708;22.412;2022-12-18T08:27:42;16.85;;;11.15;;
40867;SDS011;26586;50.708;22.412;2022-12-18T08:30:08;19.30;;;12.10;;
40867;SDS011;26586;50.708;22.412;2022-12-18T08:32:35;23.90;;;14.98;;
40867;SDS011;26586;50.708;22.412;2022-12-18T08:35:02;22.35;;;14.43;;
40867;SDS011;26586;50.708;22.412;2022-12-18T08:37:28;21.38;;;13.23;;
40867;SDS011;26586;50.708;22.412;2022-12-18T08:39:54;23.83;;;10.63;;
40867;SDS011;26586;50.708;22.412;2022-12-18T08:42:20;19.63;;;10.38;;
40867;SDS011;26586;50.708;22.412;2022-12-18T08:45:06;20.17;;;11.55;;
40867;SDS011;26586;50.708;22.412;2022-12-18T08:47:33;22.35;;;13.05;;
40867;SDS011;26586;50.708;22.412;2022-12-18T08:50:00;21.98;;;12.20;;
40867;SDS011;26586;50.708;22.412;2022-12-18T08:52:26;30.15;;;16.33;;
40867;SDS011;26586;50.708;22.412;2022-12-18T08:54:53;17.05;;;11.23;;
40867;SDS011;26586;50.708;22.412;2022-12-18T08:57:19;31.63;;;17.27;;
40867;SDS011;26586;50.708;22.412;2022-12-18T08:59:46;31.83;;;17.63;;
40867;SDS011;26586;50.708;22.412;2022-12-18T09:02:13;28.20;;;15.00;;
40867;SDS011;26586;50.708;22.412;2022-12-18T09:04:39;30.88;;;14.85;;
40867;SDS011;26586;50.708;22.412;2022-12-18T09:07:06;26.52;;;13.75;;
40867;SDS011;26586;50.708;22.412;2022-12-18T09:09:33;28.97;;;16.57;;
40867;SDS011;26586;50.708;22.412;2022-12-18T09:11:59;22.13;;;13.50;;
40867;SDS011;26586;50.708;22.412;2022-12-18T09:14:27;20.60;;;12.43;;
40867;SDS011;26586;50.708;22.412;2022-12-18T09:16:54;20.23;;;10.77;;
40867;SDS011;26586;50.708;22.412;2022-12-18T09:19:20;15.05;;;9.70;;
40867;SDS011;26586;50.708;22.412;2022-12-18T09:21:46;15.07;;;8.45;;
40867;SDS011;26586;50.708;22.412;2022-12-18T09:24:13;15.80;;;9.00;;
40867;SDS011;26586;50.708;22.412;2022-12-18T09:26:39;14.93;;;8.07;;
40867;SDS011;26586;50.708;22.412;2022-12-18T09:29:06;14.45;;;8.15;;
40867;SDS011;26586;50.708;22.412;2022-12-18T09:31:35;15.50;;;9.02;;
40867;SDS011;26586;50.708;22.412;2022-12-18T09:34:05;19.65;;;11.00;;
40867;SDS011;26586;50.708;22.412;2022-12-18T09:36:31;16.85;;;10.63;;
40867;SDS011;26586;50.708;22.412;2022-12-18T09:38:57;19.08;;;9.73;;
40867;SDS011;26586;50.708;22.412;2022-12-18T09:46:51;14.93;;;8.52;;
40867;SDS011;26586;50.708;22.412;2022-12-18T09:49:24;18.75;;;10.38;;
40867;SDS011;26586;50.708;22.412;2022-12-18T09:52:00;15.32;;;8.32;;
40867;SDS011;26586;50.708;22.412;2022-12-18T09:54:44;22.50;;;13.10;;
40867;SDS011;26586;50.708;22.412;2022-12-18T09:57:17;15.95;;;9.10;;
40867;SDS011;26586;50.708;22.412;2022-12-18T09:59:47;15.60;;;9.45;;
40867;SDS011;26586;50.708;22.412;2022-12-18T10:02:25;20.92;;;11.77;;
40867;SDS011;26586;50.708;22.412;2022-12-18T10:05:10;25.17;;;12.23;;
40867;SDS011;26586;50.708;22.412;2022-12-18T10:07:42;19.25;;;11.50;;
40867;SDS011;26586;50.708;22.412;2022-12-18T10:10:23;18.48;;;10.75;;
40867;SDS011;26586;50.708;22.412;2022-12-18T10:15:31;26.08;;;13.73;;
40867;SDS011;26586;50.708;22.412;2022-12-18T10:21:10;33.47;;;18.45;;
40867;SDS011;26586;50.708;22.412;2022-12-18T10:23:50;42.13;;;25.45;;
40867;SDS011;26586;50.708;22.412;2022-12-18T10:26:39;35.47;;;21.45;;
40867;SDS011;26586;50.708;22.412;2022-12-18T10:29:13;38.95;;;24.90;;
40867;SDS011;26586;50.708;22.412;2022-12-18T10:31:42;39.50;;;25.60;;
40867;SDS011;26586;50.708;22.412;2022-12-18T10:34:09;48.88;;;28.50;;
40867;SDS011;26586;50.708;22.412;2022-12-18T10:36:37;41.08;;;29.02;;
40867;SDS011;26586;50.708;22.412;2022-12-18T10:39:16;22.52;;;13.63;;
40867;SDS011;26586;50.708;22.412;2022-12-18T10:41:51;23.02;;;12.75;;
40867;SDS011;26586;50.708;22.412;2022-12-18T10:44:34;29.05;;;16.70;;
40867;SDS011;26586;50.708;22.412;2022-12-18T10:47:04;22.50;;;12.20;;
40867;SDS011;26586;50.708;22.412;2022-12-18T10:49:37;237.95;;;54.78;;
40867;SDS011;26586;50.708;22.412;2022-12-18T10:52:23;28.95;;;16.50;;
40867;SDS011;26586;50.708;22.412;2022-12-18T10:54:58;29.98;;;16.98;;
40867;SDS011;26586;50.708;22.412;2022-12-18T11:00:25;43.33;;;22.08;;
40867;SDS011;26586;50.708;22.412;2022-12-18T11:02:51;26.17;;;14.77;;
40867;SDS011;26586;50.708;22.412;2022-12-18T11:05:30;30.73;;;16.30;;
40867;SDS011;26586;50.708;22.412;2022-12-18T11:07:59;25.23;;;13.73;;
40867;SDS011;26586;50.708;22.412;2022-12-18T11:10:35;19.55;;;11.70;;
40867;SDS011;26586;50.708;22.412;2022-12-18T11:13:14;17.65;;;9.88;;
40867;SDS011;26586;50.708;22.412;2022-12-18T11:15:42;20.70;;;10.75;;
40867;SDS011;26586;50.708;22.412;2022-12-18T11:18:16;33.38;;;16.23;;
40867;SDS011;26586;50.708;22.412;2022-12-18T11:20:50;35.67;;;18.08;;
40867;SDS011;26586;50.708;22.412;2022-12-18T11:23:19;34.42;;;18.50;;
40867;SDS011;26586;50.708;22.412;2022-12-18T11:25:57;39.58;;;18.98;;
40867;SDS011;26586;50.708;22.412;2022-12-18T11:28:29;26.85;;;13.30;;
40867;SDS011;26586;50.708;22.412;2022-12-18T11:31:17;38.22;;;17.45;;
40867;SDS011;26586;50.708;22.412;2022-12-18T11:36:19;33.00;;;18.60;;
40867;SDS011;26586;50.708;22.412;2022-12-18T11:38:48;31.77;;;16.85;;
40867;SDS011;26586;50.708;22.412;2022-12-18T11:44:09;30.20;;;15.98;;
40867;SDS011;26586;50.708;22.412;2022-12-18T11:46:51;20.15;;;12.18;;
40867;SDS011;26586;50.708;22.412;2022-12-18T11:49:24;19.67;;;11.45;;
40867;SDS011;26586;50.708;22.412;2022-12-18T11:54:44;13.82;;;9.68;;
40867;SDS011;26586;50.708;22.412;2022-12-18T11:59:56;22.45;;;11.13;;
40867;SDS011;26586;50.708;22.412;2022-12-18T12:16:55;23.75;;;13.32;;
40867;SDS011;26586;50.708;22.412;2022-12-18T12:19:33;22.65;;;13.20;;
40867;SDS011;26586;50.708;22.412;2022-12-18T12:22:17;23.05;;;11.35;;
40867;SDS011;26586;50.708;22.412;2022-12-18T12:35:56;20.38;;;11.55;;
40867;SDS011;26586;50.708;22.412;2022-12-18T12:41:17;23.80;;;12.88;;
40867;SDS011;26586;50.708;22.412;2022-12-18T12:44:07;24.20;;;13.60;;
40867;SDS011;26586;50.708;22.412;2022-12-18T12:46:39;21.10;;;12.10;;
40867;SDS011;26586;50.708;22.412;2022-12-18T12:49:09;22.35;;;12.95;;
40867;SDS011;26586;50.708;22.412;2022-12-18T12:51:43;56.38;;;25.05;;
40867;SDS011;26586;50.708;22.412;2022-12-18T12:54:19;58.70;;;27.02;;
40867;SDS011;26586;50.708;22.412;2022-12-18T12:57:09;44.47;;;24.23;;
40867;SDS011;26586;50.708;22.412;2022-12-18T13:00:09;48.03;;;25.67;;
40867;SDS011;26586;50.708;22.412;2022-12-18T13:05:30;50.75;;;25.15;;
40867;SDS011;26586;50.708;22.412;2022-12-18T13:10:37;45.63;;;24.45;;
40867;SDS011;26586;50.708;22.412;2022-12-18T13:15:45;19.63;;;11.18;;
40867;SDS011;26586;50.708;22.412;2022-12-18T13:21:24;18.80;;;10.27;;
40867;SDS011;26586;50.708;22.412;2022-12-18T13:23:36;19.77;;;10.57;;
40867;SDS011;26586;50.708;22.412;2022-12-18T13:31:00;54.93;;;27.07;;
40867;SDS011;26586;50.708;22.412;2022-12-18T13:36:10;51.65;;;24.70;;
40867;SDS011;26586;50.708;22.412;2022-12-18T13:42:44;40.15;;;19.33;;
40867;SDS011;26586;50.708;22.412;2022-12-18T13:44:59;52.58;;;28.65;;
40867;SDS011;26586;50.708;22.412;2022-12-18T13:47:33;53.83;;;28.45;;
40867;SDS011;26586;50.708;22.412;2022-12-18T13:50:09;63.47;;;32.17;;
40867;SDS011;26586;50.708;22.412;2022-12-18T13:52:48;71.93;;;38.95;;
40867;SDS011;26586;50.708;22.412;2022-12-18T13:55:16;32.00;;;18.45;;
40867;SDS011;26586;50.708;22.412;2022-12-18T13:57:46;74.75;;;40.42;;
40867;SDS011;26586;50.708;22.412;2022-12-18T14:00:28;37.07;;;21.90;;
40867;SDS011;26586;50.708;22.412;2022-12-18T14:02:56;34.97;;;22.00;;
40867;SDS011;26586;50.708;22.412;2022-12-18T14:05:34;35.08;;;21.45;;
40867;SDS011;26586;50.708;22.412;2022-12-18T14:08:08;40.28;;;23.88;;
40867;SDS011;26586;50.708;22.412;2022-12-18T14:10:41;38.38;;;23.73;;
40867;SDS011;26586;50.708;22.412;2022-12-18T14:13:21;63.30;;;33.17;;
40867;SDS011;26586;50.708;22.412;2022-12-18T14:15:52;52.53;;;26.60;;
40867;SDS011;26586;50.708;22.412;2022-12-18T14:18:23;57.70;;;33.95;;
40867;SDS011;26586;50.708;22.412;2022-12-18T14:20:52;37.72;;;23.33;;
40867;SDS011;26586;50.708;22.412;2022-12-18T14:23:27;35.53;;;20.08;;
40867;SDS011;26586;50.708;22.412;2022-12-18T14:26:17;23.15;;;14.77;;
40867;SDS011;26586;50.708;22.412;2022-12-18T14:28:45;28.55;;;17.75;;
40867;SDS011;26586;50.708;22.412;2022-12-18T14:31:18;24.13;;;16.20;;
40867;SDS011;26586;50.708;22.412;2022-12-18T14:33:55;23.38;;;16.13;;
40867;SDS011;26586;50.708;22.412;2022-12-18T14:36:25;23.10;;;14.18;;
40867;SDS011;26586;50.708;22.412;2022-12-18T14:38:56;18.63;;;12.60;;
40867;SDS011;26586;50.708;22.412;2022-12-18T14:41:23;19.20;;;11.68;;
40867;SDS011;26586;50.708;22.412;2022-12-18T14:43:52;20.00;;;12.52;;
40867;SDS011;26586;50.708;22.412;2022-12-18T14:46:35;19.73;;;12.15;;
40867;SDS011;26586;50.708;22.412;2022-12-18T14:49:04;32.03;;;17.63;;
40867;SDS011;26586;50.708;22.412;2022-12-18T14:51:47;27.65;;;15.40;;
40867;SDS011;26586;50.708;22.412;2022-12-18T14:54:19;41.58;;;24.85;;
40867;SDS011;26586;50.708;22.412;2022-12-18T14:56:47;29.95;;;19.92;;
40867;SDS011;26586;50.708;22.412;2022-12-18T14:59:19;32.92;;;20.33;;
40867;SDS011;26586;50.708;22.412;2022-12-18T15:04:36;24.27;;;13.95;;
40867;SDS011;26586;50.708;22.412;2022-12-18T15:09:35;26.15;;;14.85;;
40867;SDS011;26586;50.708;22.412;2022-12-18T15:12:02;17.55;;;11.27;;
40867;SDS011;26586;50.708;22.412;2022-12-18T15:16:56;28.42;;;17.30;;
40867;SDS011;26586;50.708;22.412;2022-12-18T15:19:28;24.58;;;14.98;;
40867;SDS011;26586;50.708;22.412;2022-12-18T15:22:00;27.13;;;16.75;;
40867;SDS011;26586;50.708;22.412;2022-12-18T15:24:29;51.67;;;27.90;;
40867;SDS011;26586;50.708;22.412;2022-12-18T15:26:57;93.00;;;45.47;;
40867;SDS011;26586;50.708;22.412;2022-12-18T15:32:02;33.95;;;19.92;;
40867;SDS011;26586;50.708;22.412;2022-12-18T15:34:31;35.88;;;22.55;;
40867;SDS011;26586;50.708;22.412;2022-12-18T15:36:59;41.30;;;24.52;;
40867;SDS011;26586;50.708;22.412;2022-12-18T15:39:25;59.13;;;27.90;;
40867;SDS011;26586;50.708;22.412;2022-12-18T15:41:51;61.50;;;27.88;;
40867;SDS011;26586;50.708;22.412;2022-12-18T15:44:37;47.95;;;24.63;;
40867;SDS011;26586;50.708;22.412;2022-12-18T15:47:03;33.92;;;20.80;;
40867;SDS011;26586;50.708;22.412;2022-12-18T15:49:33;30.70;;;19.80;;
40867;SDS011;26586;50.708;22.412;2022-12-18T15:51:59;29.48;;;19.85;;
40867;SDS011;26586;50.708;22.412;2022-12-18T15:54:27;28.60;;;19.08;;
40867;SDS011;26586;50.708;22.412;2022-12-18T15:57:12;26.67;;;18.73;;
40867;SDS011;26586;50.708;22.412;2022-12-18T15:59:52;20.33;;;11.13;;
40867;SDS011;26586;50.708;22.412;2022-12-18T16:02:23;21.20;;;11.48;;
40867;SDS011;26586;50.708;22.412;2022-12-18T16:04:51;26.05;;;13.70;;
40867;SDS011;26586;50.708;22.412;2022-12-18T16:07:19;21.77;;;14.77;;
40867;SDS011;26586;50.708;22.412;2022-12-18T16:09:46;18.80;;;12.35;;
40867;SDS011;26586;50.708;22.412;2022-12-18T16:12:16;53.83;;;29.85;;
40867;SDS011;26586;50.708;22.412;2022-12-18T16:14:44;37.67;;;23.25;;
40867;SDS011;26586;50.708;22.412;2022-12-18T16:17:11;15.95;;;10.68;;
40867;SDS011;26586;50.708;22.412;2022-12-18T16:19:39;19.02;;;12.73;;
40867;SDS011;26586;50.708;22.412;2022-12-18T16:22:16;17.40;;;11.25;;
40867;SDS011;26586;50.708;22.412;2022-12-18T16:24:46;25.73;;;15.75;;
40867;SDS011;26586;50.708;22.412;2022-12-18T16:27:13;27.90;;;20.17;;
40867;SDS011;26586;50.708;22.412;2022-12-18T16:29:39;47.63;;;30.97;;
40867;SDS011;26586;50.708;22.412;2022-12-18T16:32:05;41.38;;;28.30;;